sensor_id;sensor_type;location;lat;lon;timestamp;P1;durP1;ratioP1;P2;durP2;ratioP2
57627;SDS011;43451;49.060;10.616;2022-09-03T00:00:55;3.85;;;1.80;;
57627;SDS011;43451;49.060;10.616;2022-09-03T00:08:41;1.90;;;1.70;;
57627;SDS011;43451;49.060;10.616;2022-09-03T00:11:22;3.63;;;1.83;;
57627;SDS011;43451;49.060;10.616;2022-09-03T00:16:51;2.20;;;1.65;;
57627;SDS011;43451;49.060;10.616;2022-09-03T00:19:24;1.85;;;1.60;;
57627;SDS011;43451;49.060;10.616;2022-09-03T00:24:24;2.75;;;1.70;;
57627;SDS011;43451;49.060;10.616;2022-09-03T00:26:54;2.40;;;1.70;;
57627;SDS011;43451;49.060;10.616;2022-09-03T00:29:24;2.70;;;1.73;;
57627;SDS011;43451;49.060;10.616;2022-09-03T00:31:57;13.65;;;6.88;;
57627;SDS011;43451;49.060;10.616;2022-09-03T00:37:06;10.27;;;5.20;;
57627;SDS011;43451;49.060;10.616;2022-09-03T00:39:34;26.17;;;12.05;;
57627;SDS011;43451;49.060;10.616;2022-09-03T00:44:37;42.25;;;18.13;;
57627;SDS011;43451;49.060;10.616;2022-09-03T00:55:15;2.53;;;1.98;;
57627;SDS011;43451;49.060;10.616;2022-09-03T01:00:17;8.80;;;4.88;;
57627;SDS011;43451;49.060;10.616;2022-09-03T01:05:40;10.27;;;4.97;;
57627;SDS011;43451;49.060;10.616;2022-09-03T01:13:44;7.88;;;4.97;;
57627;SDS011;43451;49.060;10.616;2022-09-03T01:18:51;13.30;;;6.30;;
57627;SDS011;43451;49.060;10.616;2022-09-03T01:29:46;1.98;;;1.85;;
57627;SDS011;43451;49.060;10.616;2022-09-03T01:35:06;3.65;;;2.65;;
57627;SDS011;43451;49.060;10.616;2022-09-03T01:45:51;2.72;;;2.40;;
57627;SDS011;43451;49.060;10.616;2022-09-03T01:48:26;2.95;;;1.90;;
57627;SDS011;43451;49.060;10.616;2022-09-03T01:58:57;3.28;;;2.00;;
57627;SDS011;43451;49.060;10.616;2022-09-03T02:01:36;2.90;;;2.47;;
57627;SDS011;43451;49.060;10.616;2022-09-03T02:04:20;3.08;;;2.78;;
57627;SDS011;43451;49.060;10.616;2022-09-03T02:06:52;3.63;;;2.80;;
57627;SDS011;43451;49.060;10.616;2022-09-03T02:09:21;3.05;;;2.75;;
57627;SDS011;43451;49.060;10.616;2022-09-03T02:11:49;6.43;;;3.10;;
57627;SDS011;43451;49.060;10.616;2022-09-03T02:14:19;15.93;;;12.38;;
57627;SDS011;43451;49.060;10.616;2022-09-03T02:16:45;25.95;;;20.92;;
57627;SDS011;43451;49.060;10.616;2022-09-03T02:19:11;25.75;;;19.67;;
57627;SDS011;43451;49.060;10.616;2022-09-03T02:21:45;11.25;;;9.45;;
57627;SDS011;43451;49.060;10.616;2022-09-03T02:24:15;12.48;;;9.80;;
57627;SDS011;43451;49.060;10.616;2022-09-03T02:26:41;13.85;;;11.18;;
57627;SDS011;43451;49.060;10.616;2022-09-03T02:29:07;14.90;;;11.45;;
57627;SDS011;43451;49.060;10.616;2022-09-03T02:31:32;12.02;;;9.25;;
57627;SDS011;43451;49.060;10.616;2022-09-03T02:33:58;8.30;;;6.25;;
57627;SDS011;43451;49.060;10.616;2022-09-03T02:36:24;5.35;;;4.05;;
57627;SDS011;43451;49.060;10.616;2022-09-03T02:39:01;7.43;;;4.75;;
57627;SDS011;43451;49.060;10.616;2022-09-03T02:41:28;7.20;;;6.30;;
57627;SDS011;43451;49.060;10.616;2022-09-03T02:46:46;6.80;;;5.50;;
57627;SDS011;43451;49.060;10.616;2022-09-03T02:49:18;5.50;;;4.55;;
57627;SDS011;43451;49.060;10.616;2022-09-03T02:51:43;3.33;;;3.03;;
57627;SDS011;43451;49.060;10.616;2022-09-03T02:54:09;5.50;;;2.80;;
57627;SDS011;43451;49.060;10.616;2022-09-03T02:56:36;3.22;;;2.60;;
57627;SDS011;43451;49.060;10.616;2022-09-03T02:59:05;3.45;;;2.30;;
57627;SDS011;43451;49.060;10.616;2022-09-03T03:01:33;3.47;;;2.70;;
57627;SDS011;43451;49.060;10.616;2022-09-03T03:03:59;4.60;;;2.72;;
57627;SDS011;43451;49.060;10.616;2022-09-03T03:06:25;2.38;;;2.17;;
57627;SDS011;43451;49.060;10.616;2022-09-03T03:08:50;2.70;;;2.50;;
57627;SDS011;43451;49.060;10.616;2022-09-03T03:11:16;3.92;;;3.47;;
57627;SDS011;43451;49.060;10.616;2022-09-03T03:13:43;5.28;;;4.47;;
57627;SDS011;43451;49.060;10.616;2022-09-03T03:16:12;5.47;;;4.10;;
57627;SDS011;43451;49.060;10.616;2022-09-03T03:18:39;3.78;;;3.30;;
57627;SDS011;43451;49.060;10.616;2022-09-03T03:21:09;5.30;;;3.80;;
57627;SDS011;43451;49.060;10.616;2022-09-03T03:23:36;8.80;;;6.75;;
57627;SDS011;43451;49.060;10.616;2022-09-03T03:26:04;5.28;;;4.53;;
57627;SDS011;43451;49.060;10.616;2022-09-03T03:28:33;4.55;;;3.58;;
57627;SDS011;43451;49.060;10.616;2022-09-03T03:33:35;3.00;;;2.70;;
57627;SDS011;43451;49.060;10.616;2022-09-03T03:36:08;6.20;;;4.00;;
57627;SDS011;43451;49.060;10.616;2022-09-03T03:38:36;3.92;;;3.40;;
57627;SDS011;43451;49.060;10.616;2022-09-03T03:41:06;5.03;;;4.25;;
57627;SDS011;43451;49.060;10.616;2022-09-03T03:43:32;5.10;;;4.60;;
57627;SDS011;43451;49.060;10.616;2022-09-03T03:45:58;6.53;;;3.92;;
57627;SDS011;43451;49.060;10.616;2022-09-03T03:48:26;2.30;;;2.10;;
57627;SDS011;43451;49.060;10.616;2022-09-03T03:50:52;2.60;;;2.10;;
57627;SDS011;43451;49.060;10.616;2022-09-03T03:53:17;2.50;;;2.30;;
57627;SDS011;43451;49.060;10.616;2022-09-03T03:55:43;3.47;;;3.05;;
57627;SDS011;43451;49.060;10.616;2022-09-03T03:58:18;3.38;;;3.00;;
57627;SDS011;43451;49.060;10.616;2022-09-03T04:00:43;2.95;;;2.63;;
57627;SDS011;43451;49.060;10.616;2022-09-03T04:03:09;3.90;;;3.22;;
57627;SDS011;43451;49.060;10.616;2022-09-03T04:05:34;3.35;;;2.58;;
57627;SDS011;43451;49.060;10.616;2022-09-03T04:08:00;3.90;;;2.90;;
57627;SDS011;43451;49.060;10.616;2022-09-03T04:10:26;4.43;;;3.22;;
57627;SDS011;43451;49.060;10.616;2022-09-03T04:12:55;3.60;;;2.90;;
57627;SDS011;43451;49.060;10.616;2022-09-03T04:15:20;2.60;;;2.40;;
57627;SDS011;43451;49.060;10.616;2022-09-03T04:17:46;3.05;;;2.05;;
57627;SDS011;43451;49.060;10.616;2022-09-03T04:20:11;5.18;;;2.30;;
57627;SDS011;43451;49.060;10.616;2022-09-03T04:22:37;3.08;;;2.17;;
57627;SDS011;43451;49.060;10.616;2022-09-03T04:25:02;3.13;;;2.30;;
57627;SDS011;43451;49.060;10.616;2022-09-03T04:27:28;3.08;;;2.40;;
57627;SDS011;43451;49.060;10.616;2022-09-03T04:29:53;2.80;;;2.42;;
57627;SDS011;43451;49.060;10.616;2022-09-03T04:32:19;3.92;;;2.65;;
57627;SDS011;43451;49.060;10.616;2022-09-03T04:35:03;3.70;;;2.97;;
57627;SDS011;43451;49.060;10.616;2022-09-03T04:37:28;4.50;;;4.05;;
57627;SDS011;43451;49.060;10.616;2022-09-03T04:39:54;5.35;;;4.13;;
57627;SDS011;43451;49.060;10.616;2022-09-03T04:42:19;7.82;;;4.78;;
57627;SDS011;43451;49.060;10.616;2022-09-03T04:44:44;6.72;;;5.10;;
57627;SDS011;43451;49.060;10.616;2022-09-03T04:47:10;3.47;;;2.80;;
57627;SDS011;43451;49.060;10.616;2022-09-03T04:49:35;2.90;;;2.60;;
57627;SDS011;43451;49.060;10.616;2022-09-03T04:52:01;3.83;;;3.05;;
57627;SDS011;43451;49.060;10.616;2022-09-03T04:54:27;3.90;;;3.00;;
57627;SDS011;43451;49.060;10.616;2022-09-03T04:56:52;4.25;;;3.15;;
57627;SDS011;43451;49.060;10.616;2022-09-03T04:59:18;3.78;;;3.30;;
57627;SDS011;43451;49.060;10.616;2022-09-03T05:01:43;4.05;;;3.60;;
57627;SDS011;43451;49.060;10.616;2022-09-03T05:04:09;3.80;;;3.40;;
57627;SDS011;43451;49.060;10.616;2022-09-03T05:06:34;3.25;;;2.97;;
57627;SDS011;43451;49.060;10.616;2022-09-03T05:09:01;6.90;;;3.63;;
57627;SDS011;43451;49.060;10.616;2022-09-03T05:11:28;5.78;;;3.20;;
57627;SDS011;43451;49.060;10.616;2022-09-03T05:13:55;5.18;;;3.00;;
57627;SDS011;43451;49.060;10.616;2022-09-03T05:16:22;12.75;;;3.47;;
57627;SDS011;43451;49.060;10.616;2022-09-03T05:18:52;5.38;;;3.10;;
57627;SDS011;43451;49.060;10.616;2022-09-03T05:21:20;3.88;;;2.85;;
57627;SDS011;43451;49.060;10.616;2022-09-03T05:23:47;3.22;;;2.85;;
57627;SDS011;43451;49.060;10.616;2022-09-03T05:26:18;3.30;;;2.95;;
57627;SDS011;43451;49.060;10.616;2022-09-03T05:28:46;3.70;;;2.70;;
57627;SDS011;43451;49.060;10.616;2022-09-03T05:31:16;5.30;;;2.65;;
57627;SDS011;43451;49.060;10.616;2022-09-03T05:33:44;3.95;;;3.10;;
57627;SDS011;43451;49.060;10.616;2022-09-03T05:36:12;3.35;;;2.80;;
57627;SDS011;43451;49.060;10.616;2022-09-03T05:38:40;3.08;;;2.67;;
57627;SDS011;43451;49.060;10.616;2022-09-03T05:41:07;3.05;;;2.58;;
57627;SDS011;43451;49.060;10.616;2022-09-03T05:43:34;3.00;;;2.70;;
57627;SDS011;43451;49.060;10.616;2022-09-03T05:46:02;4.35;;;2.80;;
57627;SDS011;43451;49.060;10.616;2022-09-03T05:48:28;2.67;;;2.28;;
57627;SDS011;43451;49.060;10.616;2022-09-03T05:50:58;6.20;;;3.45;;
57627;SDS011;43451;49.060;10.616;2022-09-03T05:53:29;4.43;;;2.72;;
57627;SDS011;43451;49.060;10.616;2022-09-03T05:55:57;3.03;;;2.72;;
57627;SDS011;43451;49.060;10.616;2022-09-03T05:58:24;3.45;;;2.78;;
57627;SDS011;43451;49.060;10.616;2022-09-03T06:00:51;3.85;;;2.75;;
57627;SDS011;43451;49.060;10.616;2022-09-03T06:03:16;3.20;;;2.65;;
57627;SDS011;43451;49.060;10.616;2022-09-03T06:05:51;7.03;;;3.35;;
57627;SDS011;43451;49.060;10.616;2022-09-03T06:08:19;6.63;;;4.10;;
57627;SDS011;43451;49.060;10.616;2022-09-03T06:10:46;4.13;;;2.67;;
57627;SDS011;43451;49.060;10.616;2022-09-03T06:13:12;4.07;;;1.90;;
57627;SDS011;43451;49.060;10.616;2022-09-03T06:15:37;2.47;;;1.80;;
57627;SDS011;43451;49.060;10.616;2022-09-03T06:18:03;2.47;;;1.92;;
57627;SDS011;43451;49.060;10.616;2022-09-03T06:20:29;2.53;;;2.10;;
57627;SDS011;43451;49.060;10.616;2022-09-03T06:22:56;8.20;;;2.00;;
57627;SDS011;43451;49.060;10.616;2022-09-03T06:25:22;2.70;;;1.92;;
57627;SDS011;43451;49.060;10.616;2022-09-03T06:27:48;3.30;;;2.17;;
57627;SDS011;43451;49.060;10.616;2022-09-03T06:30:14;3.08;;;2.10;;
57627;SDS011;43451;49.060;10.616;2022-09-03T06:32:47;2.50;;;1.95;;
57627;SDS011;43451;49.060;10.616;2022-09-03T06:35:14;5.90;;;2.38;;
57627;SDS011;43451;49.060;10.616;2022-09-03T06:37:41;3.13;;;1.98;;
57627;SDS011;43451;49.060;10.616;2022-09-03T06:40:07;2.40;;;1.70;;
57627;SDS011;43451;49.060;10.616;2022-09-03T06:42:40;2.15;;;1.85;;
57627;SDS011;43451;49.060;10.616;2022-09-03T06:45:09;2.13;;;1.80;;
57627;SDS011;43451;49.060;10.616;2022-09-03T06:47:35;2.42;;;1.92;;
57627;SDS011;43451;49.060;10.616;2022-09-03T06:50:01;3.10;;;1.70;;
57627;SDS011;43451;49.060;10.616;2022-09-03T06:52:27;1.98;;;1.77;;
57627;SDS011;43451;49.060;10.616;2022-09-03T06:54:53;2.92;;;2.00;;
57627;SDS011;43451;49.060;10.616;2022-09-03T06:57:19;3.10;;;1.95;;
57627;SDS011;43451;49.060;10.616;2022-09-03T06:59:44;2.45;;;1.90;;
57627;SDS011;43451;49.060;10.616;2022-09-03T07:02:10;3.17;;;2.00;;
57627;SDS011;43451;49.060;10.616;2022-09-03T07:04:35;2.30;;;1.70;;
57627;SDS011;43451;49.060;10.616;2022-09-03T07:07:01;2.67;;;1.90;;
57627;SDS011;43451;49.060;10.616;2022-09-03T07:09:27;4.32;;;1.90;;
57627;SDS011;43451;49.060;10.616;2022-09-03T07:11:53;2.20;;;2.00;;
57627;SDS011;43451;49.060;10.616;2022-09-03T07:14:19;2.92;;;1.88;;
57627;SDS011;43451;49.060;10.616;2022-09-03T07:16:46;2.05;;;1.80;;
57627;SDS011;43451;49.060;10.616;2022-09-03T07:19:13;4.70;;;1.83;;
57627;SDS011;43451;49.060;10.616;2022-09-03T07:21:39;2.40;;;1.90;;
57627;SDS011;43451;49.060;10.616;2022-09-03T07:24:06;4.75;;;1.88;;
57627;SDS011;43451;49.060;10.616;2022-09-03T07:26:33;3.78;;;2.22;;
57627;SDS011;43451;49.060;10.616;2022-09-03T07:29:03;2.88;;;2.03;;
57627;SDS011;43451;49.060;10.616;2022-09-03T07:31:38;2.25;;;1.85;;
57627;SDS011;43451;49.060;10.616;2022-09-03T07:34:06;3.90;;;2.30;;
57627;SDS011;43451;49.060;10.616;2022-09-03T07:36:36;3.13;;;1.80;;
57627;SDS011;43451;49.060;10.616;2022-09-03T07:39:07;2.88;;;2.13;;
57627;SDS011;43451;49.060;10.616;2022-09-03T07:41:33;3.10;;;1.95;;
57627;SDS011;43451;49.060;10.616;2022-09-03T07:43:59;2.60;;;2.20;;
57627;SDS011;43451;49.060;10.616;2022-09-03T07:46:30;3.90;;;2.20;;
57627;SDS011;43451;49.060;10.616;2022-09-03T07:48:57;2.28;;;2.08;;
57627;SDS011;43451;49.060;10.616;2022-09-03T07:51:26;4.47;;;2.28;;
57627;SDS011;43451;49.060;10.616;2022-09-03T07:53:55;2.90;;;2.40;;
57627;SDS011;43451;49.060;10.616;2022-09-03T07:56:21;3.45;;;2.20;;
57627;SDS011;43451;49.060;10.616;2022-09-03T07:58:51;3.92;;;2.40;;
57627;SDS011;43451;49.060;10.616;2022-09-03T08:01:19;2.67;;;2.13;;
57627;SDS011;43451;49.060;10.616;2022-09-03T08:03:46;2.72;;;2.33;;
57627;SDS011;43451;49.060;10.616;2022-09-03T08:06:14;5.13;;;2.50;;
57627;SDS011;43451;49.060;10.616;2022-09-03T08:08:41;2.20;;;2.00;;
57627;SDS011;43451;49.060;10.616;2022-09-03T08:11:12;3.30;;;2.33;;
57627;SDS011;43451;49.060;10.616;2022-09-03T08:13:40;2.33;;;2.08;;
57627;SDS011;43451;49.060;10.616;2022-09-03T08:16:08;3.30;;;2.55;;
57627;SDS011;43451;49.060;10.616;2022-09-03T08:18:34;3.83;;;2.40;;
57627;SDS011;43451;49.060;10.616;2022-09-03T08:21:09;4.20;;;2.40;;
57627;SDS011;43451;49.060;10.616;2022-09-03T08:23:39;3.00;;;2.20;;
57627;SDS011;43451;49.060;10.616;2022-09-03T08:26:06;4.72;;;2.40;;
57627;SDS011;43451;49.060;10.616;2022-09-03T08:28:32;2.95;;;2.20;;
57627;SDS011;43451;49.060;10.616;2022-09-03T08:31:03;4.30;;;2.40;;
57627;SDS011;43451;49.060;10.616;2022-09-03T08:33:30;3.38;;;2.28;;
57627;SDS011;43451;49.060;10.616;2022-09-03T08:36:05;5.78;;;2.60;;
57627;SDS011;43451;49.060;10.616;2022-09-03T08:38:34;3.58;;;3.00;;
57627;SDS011;43451;49.060;10.616;2022-09-03T08:43:29;4.68;;;2.75;;
57627;SDS011;43451;49.060;10.616;2022-09-03T08:45:56;4.67;;;2.83;;
57627;SDS011;43451;49.060;10.616;2022-09-03T08:50:49;3.70;;;2.83;;
57627;SDS011;43451;49.060;10.616;2022-09-03T08:53:21;3.38;;;2.95;;
57627;SDS011;43451;49.060;10.616;2022-09-03T08:55:58;3.70;;;3.30;;
57627;SDS011;43451;49.060;10.616;2022-09-03T08:58:28;11.75;;;3.35;;
57627;SDS011;43451;49.060;10.616;2022-09-03T09:15:15;4.63;;;3.28;;
57627;SDS011;43451;49.060;10.616;2022-09-03T09:20:59;4.80;;;4.20;;
57627;SDS011;43451;49.060;10.616;2022-09-03T09:23:37;5.93;;;4.00;;
57627;SDS011;43451;49.060;10.616;2022-09-03T09:26:15;4.65;;;3.90;;
57627;SDS011;43451;49.060;10.616;2022-09-03T09:28:42;5.57;;;3.70;;
57627;SDS011;43451;49.060;10.616;2022-09-03T09:31:11;5.18;;;3.70;;
57627;SDS011;43451;49.060;10.616;2022-09-03T09:33:42;5.05;;;3.88;;
57627;SDS011;43451;49.060;10.616;2022-09-03T09:36:09;4.28;;;3.70;;
57627;SDS011;43451;49.060;10.616;2022-09-03T09:38:41;4.47;;;3.75;;
57627;SDS011;43451;49.060;10.616;2022-09-03T09:41:14;4.15;;;3.58;;
57627;SDS011;43451;49.060;10.616;2022-09-03T09:43:43;4.15;;;3.70;;
57627;SDS011;43451;49.060;10.616;2022-09-03T09:46:13;3.60;;;3.30;;
57627;SDS011;43451;49.060;10.616;2022-09-03T09:49:21;4.47;;;3.40;;
57627;SDS011;43451;49.060;10.616;2022-09-03T09:52:21;6.70;;;3.88;;
57627;SDS011;43451;49.060;10.616;2022-09-03T09:57:38;4.53;;;3.90;;
57627;SDS011;43451;49.060;10.616;2022-09-03T10:00:08;6.97;;;3.75;;
57627;SDS011;43451;49.060;10.616;2022-09-03T10:02:46;5.05;;;3.60;;
57627;SDS011;43451;49.060;10.616;2022-09-03T10:05:20;7.32;;;4.22;;
57627;SDS011;43451;49.060;10.616;2022-09-03T10:08:02;5.18;;;4.10;;
57627;SDS011;43451;49.060;10.616;2022-09-03T10:10:43;5.63;;;4.00;;
57627;SDS011;43451;49.060;10.616;2022-09-03T10:13:17;6.63;;;4.53;;
57627;SDS011;43451;49.060;10.616;2022-09-03T10:16:02;5.55;;;4.07;;
57627;SDS011;43451;49.060;10.616;2022-09-03T10:26:23;5.43;;;4.45;;
57627;SDS011;43451;49.060;10.616;2022-09-03T10:28:55;4.70;;;4.13;;
57627;SDS011;43451;49.060;10.616;2022-09-03T10:42:59;7.50;;;4.80;;
57627;SDS011;43451;49.060;10.616;2022-09-03T11:01:46;7.00;;;5.47;;
57627;SDS011;43451;49.060;10.616;2022-09-03T11:07:00;7.00;;;5.07;;
57627;SDS011;43451;49.060;10.616;2022-09-03T11:09:54;5.70;;;4.65;;
57627;SDS011;43451;49.060;10.616;2022-09-03T11:12:54;8.18;;;5.13;;
57627;SDS011;43451;49.060;10.616;2022-09-03T11:21:02;5.85;;;5.25;;
57627;SDS011;43451;49.060;10.616;2022-09-03T11:23:31;7.35;;;5.25;;
57627;SDS011;43451;49.060;10.616;2022-09-03T11:26:03;5.45;;;4.95;;
57627;SDS011;43451;49.060;10.616;2022-09-03T11:34:12;6.65;;;5.07;;
57627;SDS011;43451;49.060;10.616;2022-09-03T11:36:39;7.25;;;4.88;;
57627;SDS011;43451;49.060;10.616;2022-09-03T11:42:04;7.43;;;4.50;;
57627;SDS011;43451;49.060;10.616;2022-09-03T11:44:40;6.05;;;4.50;;
57627;SDS011;43451;49.060;10.616;2022-09-03T11:47:14;5.07;;;4.03;;
57627;SDS011;43451;49.060;10.616;2022-09-03T11:49:45;4.50;;;3.80;;
57627;SDS011;43451;49.060;10.616;2022-09-03T11:52:23;6.05;;;3.70;;
57627;SDS011;43451;49.060;10.616;2022-09-03T11:54:54;6.38;;;3.90;;
57627;SDS011;43451;49.060;10.616;2022-09-03T11:59:54;4.93;;;3.80;;
57627;SDS011;43451;49.060;10.616;2022-09-03T12:02:35;3.92;;;3.45;;
57627;SDS011;43451;49.060;10.616;2022-09-03T12:05:13;5.45;;;3.60;;
57627;SDS011;43451;49.060;10.616;2022-09-03T12:13:16;6.97;;;3.90;;
57627;SDS011;43451;49.060;10.616;2022-09-03T12:15:53;3.95;;;3.55;;
57627;SDS011;43451;49.060;10.616;2022-09-03T12:18:44;6.15;;;4.35;;
57627;SDS011;43451;49.060;10.616;2022-09-03T12:21:46;4.53;;;4.00;;
57627;SDS011;43451;49.060;10.616;2022-09-03T12:24:54;3.45;;;3.15;;
57627;SDS011;43451;49.060;10.616;2022-09-03T12:27:31;4.15;;;3.20;;
57627;SDS011;43451;49.060;10.616;2022-09-03T12:30:00;4.90;;;3.88;;
57627;SDS011;43451;49.060;10.616;2022-09-03T12:32:30;9.13;;;3.92;;
57627;SDS011;43451;49.060;10.616;2022-09-03T12:35:23;4.10;;;3.55;;
57627;SDS011;43451;49.060;10.616;2022-09-03T12:37:50;4.95;;;3.80;;
57627;SDS011;43451;49.060;10.616;2022-09-03T12:40:34;12.48;;;3.88;;
57627;SDS011;43451;49.060;10.616;2022-09-03T12:43:16;5.35;;;3.88;;
57627;SDS011;43451;49.060;10.616;2022-09-03T12:45:43;4.20;;;3.80;;
57627;SDS011;43451;49.060;10.616;2022-09-03T12:48:13;5.28;;;3.50;;
57627;SDS011;43451;49.060;10.616;2022-09-03T12:50:40;5.22;;;3.63;;
57627;SDS011;43451;49.060;10.616;2022-09-03T12:53:05;9.55;;;4.00;;
57627;SDS011;43451;49.060;10.616;2022-09-03T12:55:37;7.03;;;3.88;;
57627;SDS011;43451;49.060;10.616;2022-09-03T13:06:26;5.53;;;3.55;;
57627;SDS011;43451;49.060;10.616;2022-09-03T13:09:03;4.88;;;3.60;;
57627;SDS011;43451;49.060;10.616;2022-09-03T13:11:32;5.70;;;3.40;;
57627;SDS011;43451;49.060;10.616;2022-09-03T13:14:01;4.43;;;3.13;;
57627;SDS011;43451;49.060;10.616;2022-09-03T13:19:08;4.63;;;3.25;;
57627;SDS011;43451;49.060;10.616;2022-09-03T13:33:31;5.25;;;4.15;;
57627;SDS011;43451;49.060;10.616;2022-09-03T13:36:15;4.25;;;3.65;;
57627;SDS011;43451;49.060;10.616;2022-09-03T13:38:45;6.63;;;4.28;;
57627;SDS011;43451;49.060;10.616;2022-09-03T13:41:16;4.53;;;3.85;;
57627;SDS011;43451;49.060;10.616;2022-09-03T13:44:09;3.42;;;3.08;;
57627;SDS011;43451;49.060;10.616;2022-09-03T13:49:55;5.07;;;3.40;;
57627;SDS011;43451;49.060;10.616;2022-09-03T13:55:51;5.93;;;3.80;;
57627;SDS011;43451;49.060;10.616;2022-09-03T14:11:48;4.35;;;3.58;;
57627;SDS011;43451;49.060;10.616;2022-09-03T14:17:39;7.82;;;2.50;;
57627;SDS011;43451;49.060;10.616;2022-09-03T14:20:16;4.22;;;1.00;;
57627;SDS011;43451;49.060;10.616;2022-09-03T14:25:29;8.77;;;1.40;;
57627;SDS011;43451;49.060;10.616;2022-09-03T14:50:40;6.97;;;1.70;;
57627;SDS011;43451;49.060;10.616;2022-09-03T14:56:33;7.05;;;2.60;;
57627;SDS011;43451;49.060;10.616;2022-09-03T14:59:28;5.85;;;2.20;;
57627;SDS011;43451;49.060;10.616;2022-09-03T15:12:49;5.97;;;1.83;;
57627;SDS011;43451;49.060;10.616;2022-09-03T15:18:01;4.43;;;1.73;;
57627;SDS011;43451;49.060;10.616;2022-09-03T15:23:30;4.72;;;1.90;;
57627;SDS011;43451;49.060;10.616;2022-09-03T15:26:29;3.88;;;1.63;;
57627;SDS011;43451;49.060;10.616;2022-09-03T15:29:26;5.03;;;1.67;;
57627;SDS011;43451;49.060;10.616;2022-09-03T15:32:06;6.25;;;1.80;;
57627;SDS011;43451;49.060;10.616;2022-09-03T15:36:59;3.10;;;1.80;;
57627;SDS011;43451;49.060;10.616;2022-09-03T15:39:34;4.13;;;1.80;;
57627;SDS011;43451;49.060;10.616;2022-09-03T15:42:10;5.95;;;2.10;;
57627;SDS011;43451;49.060;10.616;2022-09-03T15:44:47;1.73;;;1.50;;
57627;SDS011;43451;49.060;10.616;2022-09-03T15:48:00;2.60;;;1.55;;
57627;SDS011;43451;49.060;10.616;2022-09-03T15:53:04;2.08;;;1.05;;
57627;SDS011;43451;49.060;10.616;2022-09-03T15:55:49;7.32;;;1.40;;
57627;SDS011;43451;49.060;10.616;2022-09-03T15:58:33;1.52;;;1.00;;
57627;SDS011;43451;49.060;10.616;2022-09-03T16:01:13;2.92;;;1.00;;
57627;SDS011;43451;49.060;10.616;2022-09-03T16:09:04;1.67;;;1.00;;
57627;SDS011;43451;49.060;10.616;2022-09-03T16:14:54;1.83;;;1.00;;
57627;SDS011;43451;49.060;10.616;2022-09-03T16:17:30;2.30;;;1.10;;
57627;SDS011;43451;49.060;10.616;2022-09-03T16:22:49;2.45;;;1.00;;
57627;SDS011;43451;49.060;10.616;2022-09-03T16:25:28;1.95;;;1.10;;
57627;SDS011;43451;49.060;10.616;2022-09-03T16:28:23;1.90;;;0.98;;
57627;SDS011;43451;49.060;10.616;2022-09-03T16:34:01;2.10;;;0.90;;
57627;SDS011;43451;49.060;10.616;2022-09-03T16:42:20;2.67;;;1.10;;
57627;SDS011;43451;49.060;10.616;2022-09-03T16:45:02;2.45;;;1.05;;
57627;SDS011;43451;49.060;10.616;2022-09-03T16:47:51;1.00;;;0.90;;
57627;SDS011;43451;49.060;10.616;2022-09-03T16:58:52;2.63;;;1.00;;
57627;SDS011;43451;49.060;10.616;2022-09-03T17:07:28;2.38;;;1.08;;
57627;SDS011;43451;49.060;10.616;2022-09-03T17:18:29;2.03;;;1.17;;
57627;SDS011;43451;49.060;10.616;2022-09-03T17:24:12;1.10;;;1.00;;
57627;SDS011;43451;49.060;10.616;2022-09-03T17:43:47;2.30;;;1.80;;
57627;SDS011;43451;49.060;10.616;2022-09-03T17:52:01;2.13;;;1.90;;
57627;SDS011;43451;49.060;10.616;2022-09-03T17:54:36;2.72;;;1.45;;
57627;SDS011;43451;49.060;10.616;2022-09-03T17:57:21;1.55;;;1.38;;
57627;SDS011;43451;49.060;10.616;2022-09-03T18:02:36;1.58;;;1.40;;
57627;SDS011;43451;49.060;10.616;2022-09-03T18:06:08;1.33;;;1.20;;
57627;SDS011;43451;49.060;10.616;2022-09-03T18:13:13;1.70;;;1.30;;
57627;SDS011;43451;49.060;10.616;2022-09-03T18:18:46;2.72;;;1.30;;
57627;SDS011;43451;49.060;10.616;2022-09-03T18:21:22;1.77;;;1.30;;
57627;SDS011;43451;49.060;10.616;2022-09-03T18:27:04;2.30;;;1.60;;
57627;SDS011;43451;49.060;10.616;2022-09-03T18:29:56;1.73;;;1.40;;
57627;SDS011;43451;49.060;10.616;2022-09-03T18:32:44;2.72;;;1.42;;
57627;SDS011;43451;49.060;10.616;2022-09-03T18:37:56;3.67;;;1.20;;
57627;SDS011;43451;49.060;10.616;2022-09-03T18:46:53;3.30;;;1.80;;
57627;SDS011;43451;49.060;10.616;2022-09-03T18:49:55;3.15;;;1.70;;
57627;SDS011;43451;49.060;10.616;2022-09-03T18:55:45;3.20;;;1.95;;
57627;SDS011;43451;49.060;10.616;2022-09-03T19:01:47;2.27;;;2.07;;
57627;SDS011;43451;49.060;10.616;2022-09-03T19:10:55;4.13;;;2.85;;
57627;SDS011;43451;49.060;10.616;2022-09-03T19:13:42;2.97;;;2.70;;
57627;SDS011;43451;49.060;10.616;2022-09-03T19:23:01;3.00;;;2.70;;
57627;SDS011;43451;49.060;10.616;2022-09-03T19:25:46;3.58;;;2.65;;
57627;SDS011;43451;49.060;10.616;2022-09-03T19:28:30;3.50;;;3.10;;
57627;SDS011;43451;49.060;10.616;2022-09-03T19:37:28;3.00;;;2.70;;
57627;SDS011;43451;49.060;10.616;2022-09-03T19:46:48;3.30;;;3.00;;
57627;SDS011;43451;49.060;10.616;2022-09-03T19:55:11;6.45;;;3.50;;
57627;SDS011;43451;49.060;10.616;2022-09-03T19:58:01;6.22;;;3.35;;
57627;SDS011;43451;49.060;10.616;2022-09-03T20:00:45;4.45;;;3.05;;
57627;SDS011;43451;49.060;10.616;2022-09-03T20:03:29;4.18;;;3.50;;
57627;SDS011;43451;49.060;10.616;2022-09-03T20:06:14;4.07;;;3.50;;
57627;SDS011;43451;49.060;10.616;2022-09-03T20:09:07;3.40;;;3.10;;
57627;SDS011;43451;49.060;10.616;2022-09-03T20:11:55;4.68;;;3.50;;
57627;SDS011;43451;49.060;10.616;2022-09-03T20:14:25;6.22;;;3.53;;
57627;SDS011;43451;49.060;10.616;2022-09-03T20:22:32;16.77;;;11.80;;
57627;SDS011;43451;49.060;10.616;2022-09-03T20:26:07;28.10;;;22.38;;
57627;SDS011;43451;49.060;10.616;2022-09-03T20:36:46;18.42;;;15.57;;
57627;SDS011;43451;49.060;10.616;2022-09-03T20:42:12;14.88;;;13.10;;
57627;SDS011;43451;49.060;10.616;2022-09-03T20:53:28;5.07;;;3.03;;
57627;SDS011;43451;49.060;10.616;2022-09-03T21:01:56;4.20;;;3.80;;
57627;SDS011;43451;49.060;10.616;2022-09-03T21:07:15;4.80;;;2.80;;
57627;SDS011;43451;49.060;10.616;2022-09-03T21:09:54;2.72;;;2.50;;
57627;SDS011;43451;49.060;10.616;2022-09-03T21:12:39;3.67;;;3.38;;
57627;SDS011;43451;49.060;10.616;2022-09-03T21:15:31;3.38;;;3.08;;
57627;SDS011;43451;49.060;10.616;2022-09-03T21:18:05;6.45;;;3.53;;
57627;SDS011;43451;49.060;10.616;2022-09-03T21:20:55;9.48;;;7.20;;
57627;SDS011;43451;49.060;10.616;2022-09-03T21:23:30;4.57;;;4.10;;
57627;SDS011;43451;49.060;10.616;2022-09-03T21:26:42;2.38;;;2.17;;
57627;SDS011;43451;49.060;10.616;2022-09-03T21:28:58;3.03;;;2.72;;
57627;SDS011;43451;49.060;10.616;2022-09-03T21:31:31;4.53;;;3.13;;
57627;SDS011;43451;49.060;10.616;2022-09-03T21:34:13;3.58;;;2.75;;
57627;SDS011;43451;49.060;10.616;2022-09-03T21:36:49;4.65;;;3.45;;
57627;SDS011;43451;49.060;10.616;2022-09-03T21:39:19;5.28;;;3.55;;
57627;SDS011;43451;49.060;10.616;2022-09-03T21:47:04;5.28;;;3.70;;
57627;SDS011;43451;49.060;10.616;2022-09-03T21:50:16;4.10;;;3.53;;
57627;SDS011;43451;49.060;10.616;2022-09-03T21:55:00;4.07;;;3.67;;
57627;SDS011;43451;49.060;10.616;2022-09-03T22:00:10;4.95;;;4.43;;
57627;SDS011;43451;49.060;10.616;2022-09-03T22:02:42;4.57;;;4.13;;
57627;SDS011;43451;49.060;10.616;2022-09-03T22:05:09;4.78;;;4.38;;
57627;SDS011;43451;49.060;10.616;2022-09-03T22:16:25;5.00;;;4.18;;
57627;SDS011;43451;49.060;10.616;2022-09-03T22:18:57;4.85;;;4.10;;
57627;SDS011;43451;49.060;10.616;2022-09-03T22:21:30;5.63;;;4.28;;